sensor_id;sensor_type;location;lat;lon;timestamp;pressure;altitude;pressure_sealevel;temperature;humidity
77079;BME280;66004;55.096;38.760;2024-03-23T00:54:19;99368.44;;;2.64;58.10
77079;BME280;66004;55.096;38.760;2024-03-23T00:56:44;99363.94;;;2.68;58.11
77079;BME280;66004;55.096;38.760;2024-03-23T00:59:10;99371.97;;;2.70;57.97
77079;BME280;66004;55.096;38.760;2024-03-23T01:01:35;99371.16;;;2.69;57.97
77079;BME280;66004;55.096;38.760;2024-03-23T01:04:02;99368.03;;;2.71;57.99
77079;BME280;66004;55.096;38.760;2024-03-23T01:06:28;99352.72;;;2.73;57.96
77079;BME280;66004;55.096;38.760;2024-03-23T01:08:53;99357.66;;;2.77;57.97
77079;BME280;66004;55.096;38.760;2024-03-23T01:11:19;99348.72;;;2.80;58.02
77079;BME280;66004;55.096;38.760;2024-03-23T01:13:44;99342.88;;;2.81;57.97
77079;BME280;66004;55.096;38.760;2024-03-23T01:16:10;99334.31;;;2.78;57.84
77079;BME280;66004;55.096;38.760;2024-03-23T01:18:35;99344.19;;;2.84;58.12
77079;BME280;66004;55.096;38.760;2024-03-23T01:21:01;99338.03;;;2.87;58.00
77079;BME280;66004;55.096;38.760;2024-03-23T01:23:26;99341.34;;;2.89;58.11
77079;BME280;66004;55.096;38.760;2024-03-23T01:25:53;99342.38;;;2.93;57.97
77079;BME280;66004;55.096;38.760;2024-03-23T01:28:19;99340.09;;;2.95;57.88
77079;BME280;66004;55.096;38.760;2024-03-23T01:30:45;99316.34;;;2.89;57.91
77079;BME280;66004;55.096;38.760;2024-03-23T01:33:11;99335.78;;;3.03;58.00
77079;BME280;66004;55.096;38.760;2024-03-23T01:35:36;99327.75;;;3.01;57.76
77079;BME280;66004;55.096;38.760;2024-03-23T01:38:02;99304.50;;;2.97;57.69
77079;BME280;66004;55.096;38.760;2024-03-23T01:40:27;99309.97;;;3.02;57.88
77079;BME280;66004;55.096;38.760;2024-03-23T01:42:57;99317.06;;;3.08;58.01
77079;BME280;66004;55.096;38.760;2024-03-23T01:45:22;99314.19;;;3.14;57.83
77079;BME280;66004;55.096;38.760;2024-03-23T01:47:49;99311.91;;;3.16;57.73
77079;BME280;66004;55.096;38.760;2024-03-23T01:50:16;99311.91;;;3.16;58.18
77079;BME280;66004;55.096;38.760;2024-03-23T01:52:42;99319.97;;;3.17;58.11
77079;BME280;66004;55.096;38.760;2024-03-23T01:55:08;99314.41;;;3.17;57.91
77079;BME280;66004;55.096;38.760;2024-03-23T01:57:33;99304.09;;;3.18;57.80
77079;BME280;66004;55.096;38.760;2024-03-23T01:59:59;99312.34;;;3.23;57.87
77079;BME280;66004;55.096;38.760;2024-03-23T02:02:25;99290.72;;;3.20;57.79
77079;BME280;66004;55.096;38.760;2024-03-23T02:04:50;99296.16;;;3.25;57.80
77079;BME280;66004;55.096;38.760;2024-03-23T02:07:16;99299.97;;;3.29;57.88
77079;BME280;66004;55.096;38.760;2024-03-23T02:09:41;99294.63;;;3.33;57.71
77079;BME280;66004;55.096;38.760;2024-03-23T02:12:07;99291.22;;;3.36;57.75
77079;BME280;66004;55.096;38.760;2024-03-23T02:14:33;99288.66;;;3.39;57.58
77079;BME280;66004;55.096;38.760;2024-03-23T02:16:59;99279.16;;;3.40;57.75
77079;BME280;66004;55.096;38.760;2024-03-23T02:19:24;99281.84;;;3.45;57.67
77079;BME280;66004;55.096;38.760;2024-03-23T02:21:50;99281.22;;;3.48;57.87
77079;BME280;66004;55.096;38.760;2024-03-23T02:24:15;99275.47;;;3.45;57.75
77079;BME280;66004;55.096;38.760;2024-03-23T02:26:41;99279.97;;;3.55;57.65
77079;BME280;66004;55.096;38.760;2024-03-23T02:29:06;99278.19;;;3.59;57.69
77079;BME280;66004;55.096;38.760;2024-03-23T02:31:32;99264.28;;;3.59;57.82
77079;BME280;66004;55.096;38.760;2024-03-23T02:33:57;99262.22;;;3.64;57.72
77079;BME280;66004;55.096;38.760;2024-03-23T02:36:23;99266.31;;;3.67;57.92
77079;BME280;66004;55.096;38.760;2024-03-23T02:38:48;99266.81;;;3.69;57.80
77079;BME280;66004;55.096;38.760;2024-03-23T02:41:14;99260.16;;;3.70;57.96
77079;BME280;66004;55.096;38.760;2024-03-23T02:43:40;99247.34;;;3.69;57.99
77079;BME280;66004;55.096;38.760;2024-03-23T02:46:05;99245.72;;;3.68;58.01
77079;BME280;66004;55.096;38.760;2024-03-23T02:48:31;99254.97;;;3.77;58.16
77079;BME280;66004;55.096;38.760;2024-03-23T02:50:57;99249.41;;;3.77;58.09
77079;BME280;66004;55.096;38.760;2024-03-23T02:53:22;99247.94;;;3.80;58.25
77079;BME280;66004;55.096;38.760;2024-03-23T02:55:48;99229.44;;;3.75;58.49
77079;BME280;66004;55.096;38.760;2024-03-23T02:58:13;99231.44;;;3.83;58.28
77079;BME280;66004;55.096;38.760;2024-03-23T03:00:39;99219.69;;;3.86;58.56
77079;BME280;66004;55.096;38.760;2024-03-23T03:03:05;99225.88;;;3.83;58.41
77079;BME280;66004;55.096;38.760;2024-03-23T03:05:32;99225.63;;;3.94;58.73
77079;BME280;66004;55.096;38.760;2024-03-23T03:07:58;99234.16;;;3.97;58.49
77079;BME280;66004;55.096;38.760;2024-03-23T03:10:23;99230.75;;;4.00;58.67
77079;BME280;66004;55.096;38.760;2024-03-23T03:12:49;99225.38;;;4.04;58.80
77079;BME280;66004;55.096;38.760;2024-03-23T03:15:14;99209.69;;;4.08;58.62
77079;BME280;66004;55.096;38.760;2024-03-23T03:17:40;99200.84;;;4.06;58.80
77079;BME280;66004;55.096;38.760;2024-03-23T03:20:06;99206.78;;;4.13;58.80
77079;BME280;66004;55.096;38.760;2024-03-23T03:22:31;99200.91;;;4.15;58.93
77079;BME280;66004;55.096;38.760;2024-03-23T03:24:57;99191.06;;;4.17;58.86
77079;BME280;66004;55.096;38.760;2024-03-23T03:27:22;99187.97;;;4.19;59.02
77079;BME280;66004;55.096;38.760;2024-03-23T03:29:48;99179.31;;;4.20;59.11
77079;BME280;66004;55.096;38.760;2024-03-23T03:32:13;99185.88;;;4.24;59.04
77079;BME280;66004;55.096;38.760;2024-03-23T03:34:39;99174.09;;;4.27;59.13
77079;BME280;66004;55.096;38.760;2024-03-23T03:37:05;99167.53;;;4.23;59.13
77079;BME280;66004;55.096;38.760;2024-03-23T03:39:30;99164.59;;;4.28;59.43
77079;BME280;66004;55.096;38.760;2024-03-23T03:41:56;99162.50;;;4.34;59.23
77079;BME280;66004;55.096;38.760;2024-03-23T03:44:21;99133.94;;;4.20;59.22
77079;BME280;66004;55.096;38.760;2024-03-23T03:46:47;99156.13;;;4.34;59.26
77079;BME280;66004;55.096;38.760;2024-03-23T03:49:12;99156.44;;;4.32;59.53
77079;BME280;66004;55.096;38.760;2024-03-23T03:51:38;99142.84;;;4.31;59.49
77079;BME280;66004;55.096;38.760;2024-03-23T03:54:03;99139.41;;;4.34;59.34
77079;BME280;66004;55.096;38.760;2024-03-23T03:56:29;99133.84;;;4.34;59.57
77079;BME280;66004;55.096;38.760;2024-03-23T03:58:54;99133.47;;;4.26;59.50
77079;BME280;66004;55.096;38.760;2024-03-23T04:01:20;99128.91;;;4.31;59.50
77079;BME280;66004;55.096;38.760;2024-03-23T04:03:45;99120.38;;;4.27;59.55
77079;BME280;66004;55.096;38.760;2024-03-23T04:06:11;99106.78;;;4.25;59.75
77079;BME280;66004;55.096;38.760;2024-03-23T04:08:37;99123.06;;;4.41;59.58
77079;BME280;66004;55.096;38.760;2024-03-23T04:11:02;99111.94;;;4.41;59.55
77079;BME280;66004;55.096;38.760;2024-03-23T04:13:28;99110.63;;;4.47;59.42
77079;BME280;66004;55.096;38.760;2024-03-23T04:15:54;99105.41;;;4.54;59.50
77079;BME280;66004;55.096;38.760;2024-03-23T04:18:21;99093.97;;;4.64;59.35
77079;BME280;66004;55.096;38.760;2024-03-23T04:20:48;99089.38;;;4.68;59.35
77079;BME280;66004;55.096;38.760;2024-03-23T04:23:13;99085.81;;;4.77;59.18
77079;BME280;66004;55.096;38.760;2024-03-23T04:25:38;99058.38;;;4.61;59.39
77079;BME280;66004;55.096;38.760;2024-03-23T04:28:04;99082.84;;;4.82;59.19
77079;BME280;66004;55.096;38.760;2024-03-23T04:30:30;99081.56;;;4.88;59.26
77079;BME280;66004;55.096;38.760;2024-03-23T04:32:57;99084.84;;;4.99;59.13
77079;BME280;66004;55.096;38.760;2024-03-23T04:35:26;99082.06;;;5.07;58.89
77079;BME280;66004;55.096;38.760;2024-03-23T04:37:53;99076.34;;;5.13;58.72
77079;BME280;66004;55.096;38.760;2024-03-23T04:40:19;99076.00;;;5.23;58.81
77079;BME280;66004;55.096;38.760;2024-03-23T04:42:44;99073.84;;;5.29;58.69
77079;BME280;66004;55.096;38.760;2024-03-23T04:45:10;99062.88;;;5.32;58.89
77079;BME280;66004;55.096;38.760;2024-03-23T04:47:39;99070.41;;;5.40;58.73
77079;BME280;66004;55.096;38.760;2024-03-23T04:50:05;99057.63;;;5.39;58.51
77079;BME280;66004;55.096;38.760;2024-03-23T04:52:31;99053.34;;;5.51;58.61
77079;BME280;66004;55.096;38.760;2024-03-23T04:54:59;99060.84;;;5.59;58.61
77079;BME280;66004;55.096;38.760;2024-03-23T04:57:24;99048.38;;;5.65;58.48
77079;BME280;66004;55.096;38.760;2024-03-23T04:59:50;99032.63;;;5.69;58.41
77079;BME280;66004;55.096;38.760;2024-03-23T05:02:15;99038.66;;;5.80;58.39
77079;BME280;66004;55.096;38.760;2024-03-23T05:04:41;99041.41;;;5.89;58.22
77079;BME280;66004;55.096;38.760;2024-03-23T05:07:07;99042.56;;;5.96;58.23
77079;BME280;66004;55.096;38.760;2024-03-23T05:09:33;99035.78;;;6.06;57.99
77079;BME280;66004;55.096;38.760;2024-03-23T05:11:59;99039.38;;;6.15;57.95
77079;BME280;66004;55.096;38.760;2024-03-23T05:14:27;99024.75;;;6.18;57.72
77079;BME280;66004;55.096;38.760;2024-03-23T05:16:53;99029.59;;;6.30;57.77
77079;BME280;66004;55.096;38.760;2024-03-23T05:19:19;99023.50;;;6.37;57.85
77079;BME280;66004;55.096;38.760;2024-03-23T05:21:45;99018.88;;;6.41;57.58
77079;BME280;66004;55.096;38.760;2024-03-23T05:24:11;99007.28;;;6.51;57.55
77079;BME280;66004;55.096;38.760;2024-03-23T05:26:37;99023.97;;;6.69;57.51
77079;BME280;66004;55.096;38.760;2024-03-23T05:29:02;98993.13;;;6.56;57.45
77079;BME280;66004;55.096;38.760;2024-03-23T05:31:29;99026.84;;;6.51;57.35
77079;BME280;66004;55.096;38.760;2024-03-23T05:33:56;99027.75;;;6.43;57.71
77079;BME280;66004;55.096;38.760;2024-03-23T05:36:21;99021.19;;;6.39;57.58
77079;BME280;66004;55.096;38.760;2024-03-23T05:38:47;99005.75;;;6.33;57.75
77079;BME280;66004;55.096;38.760;2024-03-23T05:41:13;99012.81;;;6.39;57.77
77079;BME280;66004;55.096;38.760;2024-03-23T05:43:39;99003.72;;;6.42;57.71
77079;BME280;66004;55.096;38.760;2024-03-23T05:46:04;99006.50;;;6.51;57.53
77079;BME280;66004;55.096;38.760;2024-03-23T05:48:31;99011.25;;;6.50;57.40
77079;BME280;66004;55.096;38.760;2024-03-23T05:50:57;99004.84;;;6.50;57.68
77079;BME280;66004;55.096;38.760;2024-03-23T05:53:23;99000.09;;;6.50;57.42
77079;BME280;66004;55.096;38.760;2024-03-23T05:55:50;99007.00;;;6.44;57.55
77079;BME280;66004;55.096;38.760;2024-03-23T05:58:16;99003.94;;;6.37;57.64
77079;BME280;66004;55.096;38.760;2024-03-23T06:00:43;98994.59;;;6.33;57.80
77079;BME280;66004;55.096;38.760;2024-03-23T06:03:09;98986.19;;;6.33;57.81
77079;BME280;66004;55.096;38.760;2024-03-23T06:05:35;99002.97;;;6.33;57.70
77079;BME280;66004;55.096;38.760;2024-03-23T06:08:00;98994.41;;;6.38;57.66
77079;BME280;66004;55.096;38.760;2024-03-23T06:10:26;98983.03;;;6.43;57.61
77079;BME280;66004;55.096;38.760;2024-03-23T06:12:51;98973.75;;;6.51;57.49
77079;BME280;66004;55.096;38.760;2024-03-23T06:15:18;98968.19;;;6.51;57.44
77079;BME280;66004;55.096;38.760;2024-03-23T06:17:44;98970.63;;;6.53;57.31
77079;BME280;66004;55.096;38.760;2024-03-23T06:20:10;98965.34;;;6.60;57.23
77079;BME280;66004;55.096;38.760;2024-03-23T06:22:36;98969.56;;;6.66;57.27
77079;BME280;66004;55.096;38.760;2024-03-23T06:25:01;98983.03;;;6.85;57.08
77079;BME280;66004;55.096;38.760;2024-03-23T06:27:27;98966.81;;;6.99;56.95
77079;BME280;66004;55.096;38.760;2024-03-23T06:29:53;98969.19;;;7.10;56.66
77079;BME280;66004;55.096;38.760;2024-03-23T06:32:18;98956.03;;;7.10;56.72
77079;BME280;66004;55.096;38.760;2024-03-23T06:34:44;98971.56;;;7.20;56.65
77079;BME280;66004;55.096;38.760;2024-03-23T06:37:10;98957.34;;;7.25;56.54
77079;BME280;66004;55.096;38.760;2024-03-23T06:39:39;98956.94;;;7.35;56.07
77079;BME280;66004;55.096;38.760;2024-03-23T06:42:05;98956.94;;;7.35;56.38
77079;BME280;66004;55.096;38.760;2024-03-23T06:44:31;98952.00;;;7.32;56.60
77079;BME280;66004;55.096;38.760;2024-03-23T06:46:56;98946.53;;;7.36;56.40
77079;BME280;66004;55.096;38.760;2024-03-23T06:49:25;98944.78;;;7.31;56.36
77079;BME280;66004;55.096;38.760;2024-03-23T06:51:50;98947.34;;;7.36;56.42
77079;BME280;66004;55.096;38.760;2024-03-23T06:54:19;98948.44;;;7.44;56.48
77079;BME280;66004;55.096;38.760;2024-03-23T06:56:44;98941.88;;;7.40;56.38
77079;BME280;66004;55.096;38.760;2024-03-23T06:59:09;98947.13;;;7.29;56.46
77079;BME280;66004;55.096;38.760;2024-03-23T07:01:35;98950.81;;;7.21;56.75
77079;BME280;66004;55.096;38.760;2024-03-23T07:04:00;98944.94;;;7.14;56.96
77079;BME280;66004;55.096;38.760;2024-03-23T07:06:26;98940.06;;;7.11;57.24
77079;BME280;66004;55.096;38.760;2024-03-23T07:08:54;98945.91;;;7.18;57.15
77079;BME280;66004;55.096;38.760;2024-03-23T07:11:21;98945.22;;;7.21;57.46
77079;BME280;66004;55.096;38.760;2024-03-23T07:13:49;98916.50;;;7.12;57.42
77079;BME280;66004;55.096;38.760;2024-03-23T07:16:15;98940.47;;;7.21;57.41
77079;BME280;66004;55.096;38.760;2024-03-23T07:18:41;98912.63;;;7.04;57.64
77079;BME280;66004;55.096;38.760;2024-03-23T07:21:06;98927.22;;;7.10;57.59
77079;BME280;66004;55.096;38.760;2024-03-23T07:23:32;98928.63;;;7.04;57.41
77079;BME280;66004;55.096;38.760;2024-03-23T07:26:04;98921.38;;;7.02;57.60
77079;BME280;66004;55.096;38.760;2024-03-23T07:28:30;98928.63;;;7.04;57.65
77079;BME280;66004;55.096;38.760;2024-03-23T07:31:07;98915.09;;;7.06;57.77
77079;BME280;66004;55.096;38.760;2024-03-23T07:33:41;98914.16;;;7.01;57.82
77079;BME280;66004;55.096;38.760;2024-03-23T07:36:07;98913.47;;;7.05;57.65
77079;BME280;66004;55.096;38.760;2024-03-23T07:38:32;98920.47;;;7.11;57.87
77079;BME280;66004;55.096;38.760;2024-03-23T07:41:11;98907.91;;;7.17;57.76
77079;BME280;66004;55.096;38.760;2024-03-23T07:43:37;98907.00;;;7.25;57.50
77079;BME280;66004;55.096;38.760;2024-03-23T07:46:04;98888.13;;;7.34;57.34
77079;BME280;66004;55.096;38.760;2024-03-23T07:48:30;98867.59;;;7.30;57.37
77079;BME280;66004;55.096;38.760;2024-03-23T07:50:56;98882.56;;;7.47;57.33
77079;BME280;66004;55.096;38.760;2024-03-23T07:53:21;98881.63;;;7.43;57.43
77079;BME280;66004;55.096;38.760;2024-03-23T07:55:58;98893.28;;;7.45;57.41
77079;BME280;66004;55.096;38.760;2024-03-23T07:58:24;98887.69;;;7.45;57.67
77079;BME280;66004;55.096;38.760;2024-03-23T08:00:50;98883.03;;;7.49;57.80
77079;BME280;66004;55.096;38.760;2024-03-23T08:03:16;98879.75;;;7.47;57.47
77079;BME280;66004;55.096;38.760;2024-03-23T08:05:41;98881.63;;;7.55;57.47
77079;BME280;66004;55.096;38.760;2024-03-23T08:08:07;98876.63;;;7.60;57.47
77079;BME280;66004;55.096;38.760;2024-03-23T08:10:32;98869.06;;;7.61;57.36
77079;BME280;66004;55.096;38.760;2024-03-23T08:12:58;98870.44;;;7.55;57.43
77079;BME280;66004;55.096;38.760;2024-03-23T08:15:23;98872.19;;;7.59;57.38
77079;BME280;66004;55.096;38.760;2024-03-23T08:17:49;98866.72;;;7.63;57.25
77079;BME280;66004;55.096;38.760;2024-03-23T08:20:14;98860.16;;;7.59;57.19
77079;BME280;66004;55.096;38.760;2024-03-23T08:22:40;98846.41;;;7.66;57.07
77079;BME280;66004;55.096;38.760;2024-03-23T08:25:06;98855.97;;;7.77;56.71
77079;BME280;66004;55.096;38.760;2024-03-23T08:27:31;98855.50;;;7.88;56.89
77079;BME280;66004;55.096;38.760;2024-03-23T08:29:58;98837.06;;;7.87;57.21
77079;BME280;66004;55.096;38.760;2024-03-23T08:32:23;98841.97;;;7.90;56.83
77079;BME280;66004;55.096;38.760;2024-03-23T08:34:49;98838.72;;;7.88;56.81
77079;BME280;66004;55.096;38.760;2024-03-23T08:37:14;98846.78;;;7.89;56.99
77079;BME280;66004;55.096;38.760;2024-03-23T08:42:23;98817.94;;;7.89;57.05
77079;BME280;66004;55.096;38.760;2024-03-23T08:44:49;98831.94;;;8.01;57.20
77079;BME280;66004;55.096;38.760;2024-03-23T08:47:16;98834.25;;;7.99;56.87
77079;BME280;66004;55.096;38.760;2024-03-23T08:49:41;98827.94;;;8.02;57.11
77079;BME280;66004;55.096;38.760;2024-03-23T08:52:07;98825.59;;;8.04;57.06
77079;BME280;66004;55.096;38.760;2024-03-23T08:54:32;98818.38;;;8.03;56.97
77079;BME280;66004;55.096;38.760;2024-03-23T08:56:59;98823.28;;;8.06;57.33
77079;BME280;66004;55.096;38.760;2024-03-23T08:59:24;98820.22;;;8.11;57.30
77079;BME280;66004;55.096;38.760;2024-03-23T09:01:50;98831.75;;;8.22;57.01
77079;BME280;66004;55.096;38.760;2024-03-23T09:04:15;98822.28;;;8.27;56.82
77079;BME280;66004;55.096;38.760;2024-03-23T09:06:43;98820.41;;;8.31;57.14
77079;BME280;66004;55.096;38.760;2024-03-23T09:09:09;98798.25;;;8.26;56.93
77079;BME280;66004;55.096;38.760;2024-03-23T09:11:34;98804.75;;;8.42;56.97
77079;BME280;66004;55.096;38.760;2024-03-23T09:14:00;98801.69;;;8.47;56.85
77079;BME280;66004;55.096;38.760;2024-03-23T09:16:25;98801.91;;;8.54;57.00
77079;BME280;66004;55.096;38.760;2024-03-23T09:18:51;98792.56;;;8.50;56.89
77079;BME280;66004;55.096;38.760;2024-03-23T09:21:17;98797.47;;;8.53;56.75
77079;BME280;66004;55.096;38.760;2024-03-23T09:23:43;98797.59;;;8.57;56.83
77079;BME280;66004;55.096;38.760;2024-03-23T09:26:09;98801.22;;;8.45;57.00
77079;BME280;66004;55.096;38.760;2024-03-23T09:28:34;98809.28;;;8.47;57.25
77079;BME280;66004;55.096;38.760;2024-03-23T09:31:06;98791.88;;;8.41;57.42
77079;BME280;66004;55.096;38.760;2024-03-23T09:33:41;98788.88;;;8.34;57.54
77079;BME280;66004;55.096;38.760;2024-03-23T09:36:10;98793.94;;;8.56;57.15
77079;BME280;66004;55.096;38.760;2024-03-23T09:38:35;98792.78;;;8.57;57.25
77079;BME280;66004;55.096;38.760;2024-03-23T09:41:07;98800.94;;;8.63;57.29
77079;BME280;66004;55.096;38.760;2024-03-23T09:43:33;98785.13;;;8.70;57.15
77079;BME280;66004;55.096;38.760;2024-03-23T09:45:58;98789.59;;;8.87;57.24
77079;BME280;66004;55.096;38.760;2024-03-23T09:48:24;98790.69;;;8.99;56.64
77079;BME280;66004;55.096;38.760;2024-03-23T09:50:52;98792.31;;;9.00;56.82
77079;BME280;66004;55.096;38.760;2024-03-23T09:53:21;98792.94;;;9.09;56.95
77079;BME280;66004;55.096;38.760;2024-03-23T09:55:51;98785.63;;;9.20;56.83
77079;BME280;66004;55.096;38.760;2024-03-23T09:58:17;98788.59;;;9.43;56.72
77079;BME280;66004;55.096;38.760;2024-03-23T10:00:46;98771.13;;;9.50;56.24
77079;BME280;66004;55.096;38.760;2024-03-23T10:03:14;98771.31;;;9.57;56.40
77079;BME280;66004;55.096;38.760;2024-03-23T10:05:43;98766.00;;;9.71;56.43
77079;BME280;66004;55.096;38.760;2024-03-23T10:10:41;98786.63;;;9.95;56.00
77079;BME280;66004;55.096;38.760;2024-03-23T10:13:06;98783.38;;;9.93;56.16
77079;BME280;66004;55.096;38.760;2024-03-23T10:15:35;98781.88;;;9.99;56.11
77079;BME280;66004;55.096;38.760;2024-03-23T10:18:19;98765.47;;;9.82;56.31
77079;BME280;66004;55.096;38.760;2024-03-23T10:20:52;98762.13;;;9.60;56.29
77079;BME280;66004;55.096;38.760;2024-03-23T10:23:35;98771.66;;;9.40;56.78
77079;BME280;66004;55.096;38.760;2024-03-23T10:29:00;98768.72;;;9.32;56.86
77079;BME280;66004;55.096;38.760;2024-03-23T10:31:32;98756.38;;;9.37;56.95
77079;BME280;66004;55.096;38.760;2024-03-23T10:33:58;98755.00;;;9.47;56.93
77079;BME280;66004;55.096;38.760;2024-03-23T10:36:26;98763.69;;;9.42;56.81
77079;BME280;66004;55.096;38.760;2024-03-23T10:38:52;98762.63;;;9.30;56.92
77079;BME280;66004;55.096;38.760;2024-03-23T10:41:18;98754.69;;;9.32;56.96
77079;BME280;66004;55.096;38.760;2024-03-23T10:43:48;98750.84;;;9.41;56.75
77079;BME280;66004;55.096;38.760;2024-03-23T10:46:15;98743.22;;;9.57;56.23
77079;BME280;66004;55.096;38.760;2024-03-23T10:48:41;98739.22;;;9.58;56.34
77079;BME280;66004;55.096;38.760;2024-03-23T10:51:07;98745.91;;;9.69;56.01
77079;BME280;66004;55.096;38.760;2024-03-23T10:53:33;98742.09;;;9.78;56.05
77079;BME280;66004;55.096;38.760;2024-03-23T10:55:59;98729.47;;;9.87;55.92
77079;BME280;66004;55.096;38.760;2024-03-23T10:58:38;98734.00;;;10.11;55.64
77079;BME280;66004;55.096;38.760;2024-03-23T11:01:04;98717.13;;;10.11;55.43
77079;BME280;66004;55.096;38.760;2024-03-23T11:03:36;98724.38;;;10.12;55.37
77079;BME280;66004;55.096;38.760;2024-03-23T11:06:06;98735.28;;;9.98;55.57
77079;BME280;66004;55.096;38.760;2024-03-23T11:08:38;98718.00;;;9.77;55.74
77079;BME280;66004;55.096;38.760;2024-03-23T11:11:19;98723.31;;;9.82;55.90
77079;BME280;66004;55.096;38.760;2024-03-23T11:13:49;98719.63;;;9.78;55.59
77079;BME280;66004;55.096;38.760;2024-03-23T11:18:52;98713.44;;;9.52;55.72
77079;BME280;66004;55.096;38.760;2024-03-23T11:21:53;98713.06;;;9.54;55.90
77079;BME280;66004;55.096;38.760;2024-03-23T11:24:20;98710.97;;;9.51;55.71
77079;BME280;66004;55.096;38.760;2024-03-23T11:26:46;98717.50;;;9.55;55.58
77079;BME280;66004;55.096;38.760;2024-03-23T11:29:17;98699.03;;;9.54;55.61
77079;BME280;66004;55.096;38.760;2024-03-23T11:31:51;98698.31;;;9.57;55.65
77079;BME280;66004;55.096;38.760;2024-03-23T11:34:17;98708.78;;;9.60;55.19
77079;BME280;66004;55.096;38.760;2024-03-23T11:36:43;98694.88;;;9.48;55.47
77079;BME280;66004;55.096;38.760;2024-03-23T11:39:19;98702.38;;;9.60;55.19
77079;BME280;66004;55.096;38.760;2024-03-23T11:41:52;98703.91;;;9.57;55.48
77079;BME280;66004;55.096;38.760;2024-03-23T11:46:43;98703.91;;;9.57;55.30
77079;BME280;66004;55.096;38.760;2024-03-23T11:49:22;98693.25;;;9.47;55.23
77079;BME280;66004;55.096;38.760;2024-03-23T11:51:48;98698.69;;;9.40;55.31
77079;BME280;66004;55.096;38.760;2024-03-23T11:54:14;98688.22;;;9.37;55.41
77079;BME280;66004;55.096;38.760;2024-03-23T11:56:40;98680.06;;;9.31;55.60
77079;BME280;66004;55.096;38.760;2024-03-23T11:59:06;98679.16;;;9.27;55.65
77079;BME280;66004;55.096;38.760;2024-03-23T12:01:31;98668.03;;;9.15;55.53
77079;BME280;66004;55.096;38.760;2024-03-23T12:03:57;98666.00;;;9.12;55.77
77079;BME280;66004;55.096;38.760;2024-03-23T12:06:25;98662.56;;;9.03;55.72
77079;BME280;66004;55.096;38.760;2024-03-23T12:08:51;98666.72;;;9.09;55.80
77079;BME280;66004;55.096;38.760;2024-03-23T12:11:16;98666.88;;;9.16;55.85
77079;BME280;66004;55.096;38.760;2024-03-23T12:13:44;98669.78;;;9.20;55.63
77079;BME280;66004;55.096;38.760;2024-03-23T12:16:15;98669.41;;;9.21;55.75
77079;BME280;66004;55.096;38.760;2024-03-23T12:18:42;98663.28;;;9.15;55.62
77079;BME280;66004;55.096;38.760;2024-03-23T12:21:08;98670.84;;;9.15;55.81
77079;BME280;66004;55.096;38.760;2024-03-23T12:23:34;98673.22;;;9.13;55.92
77079;BME280;66004;55.096;38.760;2024-03-23T12:25:59;98667.41;;;9.06;55.94
77079;BME280;66004;55.096;38.760;2024-03-23T12:28:25;98667.34;;;9.02;55.96
77079;BME280;66004;55.096;38.760;2024-03-23T12:30:51;98676.22;;;8.88;55.96
77079;BME280;66004;55.096;38.760;2024-03-23T12:33:18;98647.34;;;8.72;56.13
77079;BME280;66004;55.096;38.760;2024-03-23T12:35:43;98662.75;;;8.78;56.17
77079;BME280;66004;55.096;38.760;2024-03-23T12:38:09;98669.88;;;8.75;56.32
77079;BME280;66004;55.096;38.760;2024-03-23T12:40:34;98668.88;;;8.68;56.19
77079;BME280;66004;55.096;38.760;2024-03-23T12:43:00;98664.91;;;8.69;56.40
77079;BME280;66004;55.096;38.760;2024-03-23T12:45:25;98659.94;;;8.62;56.26
77079;BME280;66004;55.096;38.760;2024-03-23T12:47:53;98651.88;;;8.61;56.53
77079;BME280;66004;55.096;38.760;2024-03-23T12:50:23;98656.78;;;8.64;56.58
77079;BME280;66004;55.096;38.760;2024-03-23T12:52:49;98659.84;;;8.58;56.57
77079;BME280;66004;55.096;38.760;2024-03-23T12:55:15;98663.09;;;8.61;56.62
77079;BME280;66004;55.096;38.760;2024-03-23T12:57:40;98659.69;;;8.51;56.52
77079;BME280;66004;55.096;38.760;2024-03-23T13:00:06;98636.59;;;8.42;56.84
77079;BME280;66004;55.096;38.760;2024-03-23T13:02:34;98653.97;;;8.48;56.88
77079;BME280;66004;55.096;38.760;2024-03-23T13:05:00;98657.94;;;8.47;56.91
77079;BME280;66004;55.096;38.760;2024-03-23T13:07:25;98658.66;;;8.44;57.05
77079;BME280;66004;55.096;38.760;2024-03-23T13:09:51;98664.16;;;8.40;57.09
77079;BME280;66004;55.096;38.760;2024-03-23T13:12:18;98664.88;;;8.37;57.17
77079;BME280;66004;55.096;38.760;2024-03-23T13:14:44;98663.50;;;8.31;57.16
77079;BME280;66004;55.096;38.760;2024-03-23T13:17:10;98650.66;;;8.30;57.49
77079;BME280;66004;55.096;38.760;2024-03-23T13:19:36;98652.56;;;8.26;57.74
77079;BME280;66004;55.096;38.760;2024-03-23T13:22:02;98620.97;;;7.97;57.57
77079;BME280;66004;55.096;38.760;2024-03-23T13:24:29;98656.34;;;8.17;57.85
77079;BME280;66004;55.096;38.760;2024-03-23T13:26:55;98649.19;;;8.20;57.81
77079;BME280;66004;55.096;38.760;2024-03-23T13:29:22;98647.44;;;8.15;57.81
77079;BME280;66004;55.096;38.760;2024-03-23T13:31:48;98636.97;;;8.12;57.83
77079;BME280;66004;55.096;38.760;2024-03-23T13:34:14;98630.56;;;8.12;57.98
77079;BME280;66004;55.096;38.760;2024-03-23T13:36:46;98626.94;;;8.11;58.29
77079;BME280;66004;55.096;38.760;2024-03-23T13:39:12;98636.19;;;8.12;58.14
77079;BME280;66004;55.096;38.760;2024-03-23T13:41:41;98632.09;;;8.09;58.17
77079;BME280;66004;55.096;38.760;2024-03-23T13:44:07;98638.44;;;8.06;58.22
77079;BME280;66004;55.096;38.760;2024-03-23T13:46:33;98613.25;;;7.94;58.31
77079;BME280;66004;55.096;38.760;2024-03-23T13:48:59;98638.44;;;8.06;58.47
77079;BME280;66004;55.096;38.760;2024-03-23T13:51:26;98627.03;;;7.99;58.37
77079;BME280;66004;55.096;38.760;2024-03-23T13:53:56;98593.53;;;7.74;58.65
77079;BME280;66004;55.096;38.760;2024-03-23T13:56:25;98626.34;;;7.90;58.78
77079;BME280;66004;55.096;38.760;2024-03-23T13:58:50;98628.25;;;7.86;58.74
77079;BME280;66004;55.096;38.760;2024-03-23T14:01:16;98622.44;;;7.78;59.00
77079;BME280;66004;55.096;38.760;2024-03-23T14:03:42;98632.91;;;7.82;59.32